createdAt,value
2022-08-22T00:01:17.572Z,100225.59
2022-08-22T00:03:09.131Z,100215.53
2022-08-22T00:03:59.643Z,100222.38
2022-08-22T00:06:55.188Z,100224.50
2022-08-22T00:09:40.661Z,100219.34
2022-08-22T00:12:10.137Z,100224.38
2022-08-22T00:15:42.049Z,100222.31
2022-08-22T00:18:08.163Z,100226.50
2022-08-22T00:20:44.427Z,100224.91
2022-08-22T00:23:22.988Z,100226.50
2022-08-22T00:26:27.233Z,100225.28
2022-08-22T00:29:01.286Z,100222.03
2022-08-22T00:31:33.989Z,100216.13
2022-08-22T00:34:12.011Z,100213.38
2022-08-22T00:37:02.305Z,100211.56
2022-08-22T00:40:03.631Z,100214.88
2022-08-22T00:42:58.063Z,100211.97
2022-08-22T00:45:59.855Z,100215.56
2022-08-22T00:48:52.500Z,100212.00
2022-08-22T00:51:51.003Z,100209.00
2022-08-22T00:55:00.549Z,100204.09
2022-08-22T00:58:01.087Z,100198.31
2022-08-22T01:00:36.416Z,100200.78
2022-08-22T01:03:46.889Z,100206.28
2022-08-22T01:06:37.190Z,100196.34
2022-08-22T01:09:41.567Z,100201.34
2022-08-22T01:12:15.533Z,100197.47
2022-08-22T01:14:51.862Z,100202.56
2022-08-22T01:17:51.364Z,100198.44
2022-08-22T01:20:36.035Z,100197.28
2022-08-22T01:23:14.701Z,100204.25
2022-08-22T01:26:09.882Z,100205.09
2022-08-22T01:29:12.663Z,100201.50
2022-08-22T01:32:08.631Z,100195.22
2022-08-22T01:34:38.035Z,100196.22
2022-08-22T01:37:45.549Z,100198.13
2022-08-22T01:40:30.934Z,100200.25
2022-08-22T01:43:01.977Z,100197.19
2022-08-22T01:46:13.146Z,100192.53
2022-08-22T01:49:13.398Z,100198.47
2022-08-22T01:52:07.522Z,100196.22
2022-08-22T01:55:01.368Z,100199.53
2022-08-22T01:57:28.579Z,100198.97
2022-08-22T01:59:59.128Z,100207.03
2022-08-22T02:02:52.039Z,100200.25
2022-08-22T02:05:46.916Z,100196.16
2022-08-22T02:08:36.459Z,100202.53
2022-08-22T02:11:06.971Z,100198.75
2022-08-22T02:13:54.123Z,100204.78
2022-08-22T02:16:31.871Z,100207.41
2022-08-22T02:19:10.895Z,100203.31
2022-08-22T02:22:13.623Z,100200.47
2022-08-22T02:24:53.862Z,100198.41
2022-08-22T02:27:39.170Z,100190.06
2022-08-22T02:30:14.267Z,100191.59
2022-08-22T02:32:40.879Z,100187.28
2022-08-22T02:35:10.324Z,100186.56
2022-08-22T02:38:07.448Z,100192.16
2022-08-22T02:40:54.252Z,100189.41
2022-08-22T02:43:42.238Z,100193.78
2022-08-22T02:46:41.828Z,100189.06
2022-08-22T02:49:36.272Z,100189.25
2022-08-22T02:52:26.275Z,100188.94
2022-08-22T02:55:02.164Z,100192.41
2022-08-22T02:57:40.274Z,100189.38
2022-08-22T03:00:31.658Z,100193.91
2022-08-22T03:02:59.359Z,100185.56
2022-08-22T03:05:37.781Z,100181.56
2022-08-22T03:08:13.279Z,100183.88
2022-08-22T03:10:48.990Z,100181.16
2022-08-22T03:13:30.366Z,100176.16
2022-08-22T03:16:10.529Z,100178.72
2022-08-22T03:19:04.226Z,100184.44
2022-08-22T03:21:34.212Z,100183.47
2022-08-22T03:24:27.991Z,100174.19
2022-08-22T03:27:31.354Z,100177.88
2022-08-22T03:30:10.647Z,100180.09
2022-08-22T03:32:50.690Z,100179.25
2022-08-22T03:35:29.463Z,100180.00
2022-08-22T03:38:16.884Z,100184.13
2022-08-22T03:40:52.905Z,100181.59
2022-08-22T03:43:50.138Z,100185.94
2022-08-22T03:46:51.001Z,100196.78
2022-08-22T03:49:31.358Z,100193.63
2022-08-22T03:52:22.420Z,100194.34
2022-08-22T03:55:26.475Z,100197.53
2022-08-22T03:58:28.183Z,100208.16
2022-08-22T04:01:15.456Z,100203.31
2022-08-22T04:04:06.920Z,100208.56
2022-08-22T04:06:56.299Z,100205.31
2022-08-22T04:09:35.367Z,100207.63
2022-08-22T04:12:34.608Z,100206.69
2022-08-22T04:15:26.160Z,100212.34
2022-08-22T04:18:17.655Z,100213.41
2022-08-22T04:21:13.903Z,100215.50
2022-08-22T04:24:01.685Z,100215.59
2022-08-22T04:26:43.640Z,100214.16
2022-08-22T04:29:22.113Z,100213.09
2022-08-22T04:32:03.021Z,100221.28
2022-08-22T04:34:37.554Z,100216.28
2022-08-22T04:37:34.735Z,100215.16
2022-08-22T04:40:16.775Z,100218.06
2022-08-22T04:42:53.936Z,100220.25
2022-08-22T04:45:36.676Z,100230.16
2022-08-22T04:48:26.921Z,100224.97
2022-08-22T04:51:25.955Z,100226.47
2022-08-22T04:54:17.211Z,100224.25
2022-08-22T04:57:08.580Z,100230.06
2022-08-22T04:59:35.948Z,100229.84
2022-08-22T05:02:08.447Z,100229.09
2022-08-22T05:04:45.721Z,100233.44
2022-08-22T05:07:25.997Z,100232.50
2022-08-22T05:10:09.275Z,100221.00
2022-08-22T05:12:49.485Z,100233.44
2022-08-22T05:15:34.447Z,100229.25
2022-08-22T05:18:07.475Z,100234.28
2022-08-22T05:20:36.452Z,100230.56
2022-08-22T05:23:17.053Z,100235.81
2022-08-22T05:25:46.596Z,100231.66
2022-08-22T05:28:32.108Z,100226.38
2022-08-22T05:30:59.933Z,100223.09
2022-08-22T05:33:47.898Z,100227.78
2022-08-22T05:36:23.467Z,100225.25
2022-08-22T05:39:02.411Z,100225.13
2022-08-22T05:41:36.822Z,100220.41
2022-08-22T05:44:04.507Z,100218.63
2022-08-22T05:46:42.286Z,100220.41
2022-08-22T05:49:19.052Z,100228.53
2022-08-22T05:52:10.412Z,100221.56
2022-08-22T05:54:49.139Z,100215.34
2022-08-22T05:57:38.681Z,100210.03
2022-08-22T06:00:12.758Z,100218.41
2022-08-22T06:02:59.157Z,100214.50
2022-08-22T06:05:29.185Z,100222.47
2022-08-22T06:08:03.300Z,100224.50
2022-08-22T06:10:48.352Z,100223.75
2022-08-22T06:13:30.005Z,100226.91
2022-08-22T06:16:16.921Z,100225.97
2022-08-22T06:18:45.776Z,100221.16
2022-08-22T06:21:39.562Z,100226.84
2022-08-22T06:24:13.348Z,100229.75
2022-08-22T06:26:48.804Z,100230.47
2022-08-22T06:29:28.401Z,100234.38
2022-08-22T06:31:56.052Z,100232.66
2022-08-22T06:34:32.556Z,100236.69
2022-08-22T06:37:03.908Z,100240.19
2022-08-22T06:39:41.412Z,100238.94
2022-08-22T06:42:19.188Z,100253.28
2022-08-22T06:44:51.623Z,100249.00
2022-08-22T06:47:36.132Z,100247.19
2022-08-22T06:50:13.620Z,100256.00
2022-08-22T06:53:18.388Z,100254.44
2022-08-22T06:55:52.197Z,100251.53
2022-08-22T06:58:27.023Z,100253.25
2022-08-22T07:01:11.800Z,100251.34
2022-08-22T07:04:00.672Z,100247.44
2022-08-22T07:06:35.248Z,100247.06
2022-08-22T07:09:06.909Z,100252.97
2022-08-22T07:11:39.461Z,100259.47
2022-08-22T07:14:11.264Z,100257.28
2022-08-22T07:16:43.188Z,100261.63
2022-08-22T07:19:22.246Z,100262.94
2022-08-22T07:21:51.987Z,100269.31
2022-08-22T07:24:25.562Z,100265.84
2022-08-22T07:27:05.707Z,100263.59
2022-08-22T07:30:02.065Z,100263.19
2022-08-22T07:32:56.019Z,100276.84
2022-08-22T07:35:44.144Z,100273.63
2022-08-22T07:38:37.442Z,100275.25
2022-08-22T07:41:14.040Z,100275.16
2022-08-22T07:43:46.296Z,100276.34
2022-08-22T07:46:30.920Z,100285.88
2022-08-22T07:49:26.559Z,100287.84
2022-08-22T07:51:58.758Z,100281.53
2022-08-22T07:54:47.271Z,100278.56
2022-08-22T07:57:16.018Z,100279.19
2022-08-22T07:59:55.023Z,100277.03
2022-08-22T08:02:22.807Z,100277.69
2022-08-22T08:04:52.815Z,100280.38
2022-08-22T08:07:23.751Z,100282.53
2022-08-22T08:09:59.494Z,100275.41
2022-08-22T08:12:34.792Z,100278.28
2022-08-22T08:15:04.518Z,100284.69
2022-08-22T08:17:34.243Z,100278.41
2022-08-22T08:20:08.059Z,100283.47
2022-08-22T08:22:37.261Z,100280.41
2022-08-22T08:25:06.773Z,100279.75
2022-08-22T08:27:57.057Z,100279.66
2022-08-22T08:30:35.530Z,100276.84
2022-08-22T08:33:24.371Z,100275.50
2022-08-22T08:36:04.149Z,100266.78
2022-08-22T08:39:12.365Z,100261.63
2022-08-22T08:41:57.288Z,100268.97
2022-08-22T08:44:55.178Z,100262.84
2022-08-22T08:47:34.227Z,100265.28
2022-08-22T08:50:34.095Z,100268.03
2022-08-22T08:53:37.835Z,100260.66
2022-08-22T08:56:37.206Z,100259.91
2022-08-22T08:59:25.843Z,100255.66
2022-08-22T09:02:08.492Z,100252.38
2022-08-22T09:05:15.701Z,100255.97
2022-08-22T09:07:59.213Z,100250.88
2022-08-22T09:11:00.840Z,100262.16
2022-08-22T09:13:44.440Z,100251.72
2022-08-22T09:16:22.532Z,100253.22
2022-08-22T09:19:02.024Z,100249.22
2022-08-22T09:22:15.602Z,100255.72
2022-08-22T09:25:14.641Z,100263.59
2022-08-22T09:28:03.610Z,100261.09
2022-08-22T09:30:59.793Z,100258.94
2022-08-22T09:33:53.156Z,100261.88
2022-08-22T09:36:59.929Z,100256.28
2022-08-22T09:39:37.985Z,100260.41
2022-08-22T09:42:18.327Z,100253.53
2022-08-22T09:45:20.484Z,100243.63
2022-08-22T09:48:06.388Z,100245.66
2022-08-22T09:50:46.671Z,100238.75
2022-08-22T09:53:32.034Z,100232.22
2022-08-22T09:56:21.695Z,100232.03
2022-08-22T09:59:04.666Z,100225.97
2022-08-22T10:02:01.236Z,100220.84
2022-08-22T10:04:44.512Z,100214.09
2022-08-22T10:07:23.655Z,100225.53
2022-08-22T10:10:03.863Z,100211.16
2022-08-22T10:12:36.549Z,100206.22
2022-08-22T10:15:16.655Z,100204.56
2022-08-22T10:18:12.335Z,100206.13
2022-08-22T10:21:10.588Z,100190.94
2022-08-22T10:23:53.789Z,100191.94
2022-08-22T10:26:38.656Z,100189.66
2022-08-22T10:29:37.889Z,100183.22
2022-08-22T10:32:16.300Z,100176.25
2022-08-22T10:34:47.890Z,100178.47
2022-08-22T10:37:39.711Z,100169.41
2022-08-22T10:40:14.204Z,100177.69
2022-08-22T10:43:03.485Z,100176.03
2022-08-22T10:45:46.623Z,100178.97
2022-08-22T10:48:35.210Z,100189.50
2022-08-22T10:51:36.658Z,100174.63
2022-08-22T10:54:20.039Z,100172.16
2022-08-22T10:57:29.520Z,100174.34
2022-08-22T11:00:16.033Z,100172.59
2022-08-22T11:03:10.668Z,100168.19
2022-08-22T11:05:50.011Z,100159.91
2022-08-22T11:08:36.200Z,100162.53
2022-08-22T11:11:06.577Z,100164.81
2022-08-22T11:13:57.822Z,100161.34
2022-08-22T11:16:48.942Z,100157.59
2022-08-22T11:19:31.858Z,100154.50
2022-08-22T11:22:14.479Z,100162.34
2022-08-22T11:25:29.299Z,100152.09
2022-08-22T11:28:20.128Z,100149.41
2022-08-22T11:31:03.690Z,100148.38
2022-08-22T11:33:47.259Z,100149.38
2022-08-22T11:36:42.161Z,100148.03
2022-08-22T11:39:19.153Z,100150.13
2022-08-22T11:42:12.495Z,100145.56
2022-08-22T11:44:50.037Z,100148.22
2022-08-22T11:47:27.269Z,100149.28
2022-08-22T11:49:58.683Z,100147.41
2022-08-22T11:52:34.385Z,100146.56
2022-08-22T11:55:05.663Z,100137.19
2022-08-22T11:57:54.902Z,100124.81
2022-08-22T12:00:23.028Z,100128.63
2022-08-22T12:03:16.260Z,100136.03
2022-08-22T12:06:36.351Z,100132.97
2022-08-22T12:09:29.808Z,100126.22
2022-08-22T12:12:20.392Z,100135.59
2022-08-22T12:15:03.477Z,100129.59
2022-08-22T12:17:55.714Z,100134.81
2022-08-22T12:20:46.390Z,100126.88
2022-08-22T12:23:43.655Z,100127.13
2022-08-22T12:26:48.106Z,100117.00
2022-08-22T12:29:33.808Z,100113.91
2022-08-22T12:32:45.783Z,100121.47
2022-08-22T12:35:38.161Z,100115.19
2022-08-22T12:38:26.722Z,100118.91
2022-08-22T12:41:27.666Z,100103.13
2022-08-22T12:43:56.314Z,100101.00
2022-08-22T12:46:36.229Z,100097.72
2022-08-22T12:49:33.813Z,100096.84
2022-08-22T12:52:08.407Z,100093.56
2022-08-22T12:54:50.068Z,100093.97
2022-08-22T12:57:39.019Z,100089.69
2022-08-22T13:00:40.148Z,100092.50
2022-08-22T13:03:23.723Z,100088.41
2022-08-22T13:05:57.035Z,100082.88
2022-08-22T13:08:42.348Z,100092.59
2022-08-22T13:11:22.727Z,100084.38
2022-08-22T13:14:00.093Z,100083.69
2022-08-22T13:16:37.524Z,100080.59
2022-08-22T13:19:13.449Z,100078.22
2022-08-22T13:21:48.240Z,100078.22
2022-08-22T13:24:22.769Z,100078.72
2022-08-22T13:27:15.076Z,100077.75
2022-08-22T13:29:47.963Z,100071.22
2022-08-22T13:32:28.633Z,100069.50
2022-08-22T13:34:57.280Z,100071.22
2022-08-22T13:37:44.310Z,100066.75
2022-08-22T13:40:21.236Z,100063.22
2022-08-22T13:42:54.226Z,100073.81
2022-08-22T13:45:25.597Z,100068.25
2022-08-22T13:47:59.217Z,100061.19
2022-08-22T13:50:52.961Z,100061.31
2022-08-22T13:53:32.496Z,100066.28
2022-08-22T13:56:15.440Z,100055.41
2022-08-22T13:58:51.639Z,100054.91
2022-08-22T14:01:25.209Z,100059.78
2022-08-22T14:04:17.528Z,100052.22
2022-08-22T14:07:24.111Z,100053.25
2022-08-22T14:10:02.559Z,100045.66
2022-08-22T14:12:50.044Z,100051.22
2022-08-22T14:15:25.802Z,100048.19
2022-08-22T14:17:56.888Z,100053.91
2022-08-22T14:20:28.524Z,100043.38
2022-08-22T14:23:09.106Z,100045.06
2022-08-22T14:25:42.115Z,100038.56
2022-08-22T14:28:27.323Z,100042.81
2022-08-22T14:31:13.462Z,100031.34
2022-08-22T14:33:53.473Z,100035.66
2022-08-22T14:36:44.424Z,100031.81
2022-08-22T14:39:42.955Z,100027.47
2022-08-22T14:42:19.021Z,100019.16
2022-08-22T14:44:58.193Z,100021.63
2022-08-22T14:48:14.484Z,100018.31
2022-08-22T14:50:46.254Z,100022.78
2022-08-22T14:53:25.123Z,100020.47
2022-08-22T14:56:04.085Z,100006.94
2022-08-22T14:58:39.407Z,100016.41
2022-08-22T15:01:15.755Z,100016.91
2022-08-22T15:03:51.253Z,100005.75
2022-08-22T15:06:38.780Z,100011.75
2022-08-22T15:09:30.943Z,100010.31
2022-08-22T15:11:58.045Z,99997.78
2022-08-22T15:14:37.541Z,100012.59
2022-08-22T15:17:08.727Z,100014.47
2022-08-22T15:19:46.981Z,100007.38
2022-08-22T15:22:27.560Z,100005.88
2022-08-22T15:25:06.819Z,100007.69
2022-08-22T15:27:48.838Z,100010.75
2022-08-22T15:30:18.723Z,100004.75
2022-08-22T15:32:48.879Z,100006.41
2022-08-22T15:35:29.992Z,99997.88
2022-08-22T15:38:04.276Z,99997.03
2022-08-22T15:40:40.757Z,100000.31
2022-08-22T15:43:22.106Z,100005.53
2022-08-22T15:46:07.048Z,100004.63
2022-08-22T15:48:38.986Z,100001.06
2022-08-22T15:51:09.448Z,100000.28
2022-08-22T15:53:45.664Z,100000.88
2022-08-22T15:56:12.376Z,99998.19
2022-08-22T15:58:48.820Z,99993.59
2022-08-22T16:01:22.337Z,100004.22
2022-08-22T16:03:58.361Z,99998.63
2022-08-22T16:06:48.224Z,99994.53
2022-08-22T16:09:52.328Z,99998.63
2022-08-22T16:12:43.782Z,100001.28
2022-08-22T16:15:55.930Z,99999.72
2022-08-22T16:18:36.972Z,99991.72
2022-08-22T16:21:05.473Z,99992.25
2022-08-22T16:24:10.619Z,99983.66
2022-08-22T16:26:40.812Z,99989.44
2022-08-22T16:29:13.481Z,99990.41
2022-08-22T16:31:44.067Z,99988.63
2022-08-22T16:34:16.793Z,99986.56
2022-08-22T16:37:14.316Z,99993.25
2022-08-22T16:39:47.033Z,99987.81
2022-08-22T16:42:22.120Z,99997.13
2022-08-22T16:44:49.956Z,99990.13
2022-08-22T16:47:41.269Z,99993.44
2022-08-22T16:50:23.245Z,99998.28
2022-08-22T16:53:10.627Z,99993.53
2022-08-22T17:00:42.559Z,99997.97
2022-08-22T17:04:03.920Z,100004.06
2022-08-22T17:07:24.744Z,99996.59
2022-08-22T17:10:45.467Z,99997.06
2022-08-22T17:14:07.136Z,100006.03
2022-08-22T17:16:53.404Z,100006.34
2022-08-22T17:19:29.668Z,100007.69
2022-08-22T17:22:04.507Z,100004.84
2022-08-22T17:24:32.374Z,100006.63
2022-08-22T17:27:25.415Z,100010.25
2022-08-22T17:30:00.692Z,100006.78
2022-08-22T17:32:33.599Z,100007.28
2022-08-22T17:35:12.766Z,100005.63
2022-08-22T17:38:18.499Z,100015.00
2022-08-22T17:41:13.549Z,100012.13
2022-08-22T17:43:49.250Z,100012.75
2022-08-22T17:46:32.861Z,100021.25
2022-08-22T17:49:12.972Z,100016.88
2022-08-22T17:52:01.533Z,100020.13
2022-08-22T17:54:43.209Z,100024.44
2022-08-22T17:57:38.035Z,100022.16
2022-08-22T18:00:13.896Z,100016.06
2022-08-22T18:02:50.655Z,100032.50
2022-08-22T18:05:20.527Z,100018.63
2022-08-22T18:07:50.192Z,100019.97
2022-08-22T18:10:35.805Z,100027.34
2022-08-22T18:13:09.648Z,100022.75
2022-08-22T18:15:47.567Z,100023.53
2022-08-22T18:18:47.293Z,100031.25
2022-08-22T18:21:24.811Z,100031.50
2022-08-22T18:23:59.518Z,100037.91
2022-08-22T18:26:36.701Z,100033.38
2022-08-22T18:29:12.841Z,100034.38
2022-08-22T18:32:20.431Z,100036.06
2022-08-22T18:35:03.445Z,100033.78
2022-08-22T18:37:30.212Z,100035.00
2022-08-22T18:40:04.794Z,100044.34
2022-08-22T18:43:01.600Z,100041.34
2022-08-22T18:45:46.535Z,100043.56
2022-08-22T18:48:24.867Z,100052.50
2022-08-22T18:50:51.840Z,100052.81
2022-08-22T18:53:43.380Z,100048.81
2022-08-22T18:56:21.572Z,100060.91
2022-08-22T18:59:05.356Z,100059.28
2022-08-22T19:01:44.762Z,100064.22
2022-08-22T19:04:25.792Z,100065.84
2022-08-22T19:07:16.549Z,100056.44
2022-08-22T19:10:34.638Z,100064.56
2022-08-22T19:13:35.325Z,100063.81
2022-08-22T19:16:11.132Z,100065.66
2022-08-22T19:18:51.418Z,100065.00
2022-08-22T19:21:53.182Z,100067.41
2022-08-22T19:24:19.679Z,100079.44
2022-08-22T19:26:49.067Z,100077.78
2022-08-22T19:29:18.402Z,100077.56
2022-08-22T19:31:53.097Z,100081.94
2022-08-22T19:34:25.591Z,100079.56
2022-08-22T19:37:32.833Z,100082.44
2022-08-22T19:40:02.686Z,100082.75
2022-08-22T19:42:34.696Z,100089.91
2022-08-22T19:45:03.558Z,100089.16
2022-08-22T19:47:37.999Z,100083.81
2022-08-22T19:50:16.744Z,100077.91
2022-08-22T19:53:00.992Z,100087.59
2022-08-22T19:55:51.126Z,100080.56
2022-08-22T19:58:39.403Z,100080.06
2022-08-22T20:01:25.009Z,100086.63
2022-08-22T20:04:03.860Z,100080.31
2022-08-22T20:06:51.656Z,100091.91
2022-08-22T20:09:38.496Z,100095.56
2022-08-22T20:12:29.584Z,100089.44
2022-08-22T20:14:56.787Z,100095.38
2022-08-22T20:17:23.710Z,100096.00
2022-08-22T20:20:28.022Z,100092.69
2022-08-22T20:23:03.790Z,100100.38
2022-08-22T20:26:03.124Z,100093.06
2022-08-22T20:28:37.232Z,100092.91
2022-08-22T20:31:10.474Z,100088.78
2022-08-22T20:33:42.028Z,100091.75
2022-08-22T20:36:27.373Z,100093.97
2022-08-22T20:39:00.166Z,100099.22
2022-08-22T20:41:34.026Z,100095.41
2022-08-22T20:44:13.620Z,100098.78
2022-08-22T20:46:46.383Z,100094.97
2022-08-22T20:49:20.871Z,100092.75
2022-08-22T20:52:08.748Z,100088.31
2022-08-22T20:54:40.331Z,100091.81
2022-08-22T20:57:19.231Z,100101.63
2022-08-22T21:00:06.621Z,100098.69
2022-08-22T21:02:43.381Z,100093.94
2022-08-22T21:05:13.333Z,100099.34
2022-08-22T21:07:42.885Z,100098.41
2022-08-22T21:10:39.731Z,100103.06
2022-08-22T21:13:17.236Z,100104.81
2022-08-22T21:15:47.999Z,100099.47
2022-08-22T21:18:25.588Z,100110.28
2022-08-22T21:20:52.341Z,100108.09
2022-08-22T21:23:19.675Z,100100.72
2022-08-22T21:25:57.891Z,100112.81
2022-08-22T21:28:38.513Z,100110.00
2022-08-22T21:31:14.788Z,100110.69
2022-08-22T21:33:47.419Z,100106.19
2022-08-22T21:36:17.902Z,100101.66
2022-08-22T21:39:01.798Z,100111.19
2022-08-22T21:41:40.902Z,100111.06
2022-08-22T21:44:29.005Z,100109.94
2022-08-22T21:46:56.945Z,100114.00
2022-08-22T21:49:29.941Z,100110.22
2022-08-22T21:51:56.578Z,100101.41
2022-08-22T21:54:27.794Z,100109.94
2022-08-22T21:57:17.176Z,100102.69
2022-08-22T21:59:51.526Z,100103.63
2022-08-22T22:02:36.514Z,100106.31
2022-08-22T22:05:08.111Z,100100.44
2022-08-22T22:07:38.101Z,100116.00
2022-08-22T22:10:08.512Z,100113.34
2022-08-22T22:12:35.119Z,100116.13
2022-08-22T22:15:03.126Z,100116.88
2022-08-22T22:17:29.602Z,100125.81
2022-08-22T22:19:56.900Z,100122.50
2022-08-22T22:22:24.176Z,100126.69
2022-08-22T22:24:50.651Z,100135.94
2022-08-22T22:27:17.301Z,100129.34
2022-08-22T22:29:44.179Z,100135.75
2022-08-22T22:32:10.975Z,100142.09
2022-08-22T22:34:39.022Z,100133.56
2022-08-22T22:37:11.756Z,100133.41
2022-08-22T22:39:38.774Z,100132.81
2022-08-22T22:42:05.670Z,100141.63
2022-08-22T22:44:32.946Z,100141.25
2022-08-22T22:47:02.472Z,100147.41
2022-08-22T22:49:30.037Z,100145.91
2022-08-22T22:52:00.569Z,100155.28
2022-08-22T22:54:27.555Z,100157.09
2022-08-22T22:56:56.832Z,100171.41
2022-08-22T22:59:25.816Z,100160.03
2022-08-22T23:02:01.714Z,100172.09
2022-08-22T23:04:30.463Z,100172.66
2022-08-22T23:06:57.116Z,100165.50
2022-08-22T23:09:25.008Z,100175.34
2022-08-22T23:12:06.673Z,100179.53
2022-08-22T23:14:34.439Z,100186.97
2022-08-22T23:17:02.019Z,100182.50
2022-08-22T23:19:29.277Z,100184.88
2022-08-22T23:21:58.423Z,100185.03
2022-08-22T23:24:27.499Z,100191.47
2022-08-22T23:26:54.219Z,100186.00
2022-08-22T23:29:20.758Z,100188.09
2022-08-22T23:31:57.417Z,100182.22
2022-08-22T23:34:28.142Z,100184.16
2022-08-22T23:36:55.859Z,100187.25
2022-08-22T23:39:24.580Z,100180.53
2022-08-22T23:41:51.641Z,100192.44
2022-08-22T23:44:21.023Z,100187.66
2022-08-22T23:46:48.638Z,100193.53
2022-08-22T23:49:16.241Z,100186.97
2022-08-22T23:51:44.340Z,100194.09
2022-08-22T23:54:12.066Z,100185.44
2022-08-22T23:56:45.743Z,100186.44
2022-08-22T23:59:16.024Z,100182.78
